Time;durP1;ratioP1;P1;durP2;ratioP2;P2;SDS_P1;SDS_P2;PMS_P1;PMS_P2;Temp;Humidity;BMP_temperature;BMP_pressure;BME280_temperature;BME280_humidity;BME280_pressure;Samples;Min_cycle;Max_cycle;Signal;HPM_P1;HPM_P2
2022/01/25 00:28:21;;;;;;;73.82;55.97;;;;;;;;;;5039475;28;20036;-57
2022/01/25 00:31:03;;;;;;;92.20;63.10;;;;;;;;;;5051898;28;20056;-57
2022/01/25 00:33:29;;;;;;;92.25;67.18;;;;;;;;;;5052394;28;20021;-56
2022/01/25 00:35:55;;;;;;;94.00;64.15;;;;;;;;;;5052867;28;20024;-57
2022/01/25 00:38:20;;;;;;;89.25;63.15;;;;;;;;;;5046240;28;20032;-57
2022/01/25 00:40:45;;;;;;;92.75;68.50;;;;;;;;;;5031731;28;20026;-57
2022/01/25 00:43:10;;;;;;;89.60;62.70;;;;;;;;;;5033334;28;20925;-57
2022/01/25 00:45:36;;;;;;;98.15;63.83;;;;;;;;;;5032146;28;20499;-57
2022/01/25 00:48:03;;;;;;;84.20;60.50;;;;;;;;;;5037313;28;20021;-56
2022/01/25 00:50:36;;;;;;;92.90;65.05;;;;;;;;;;5051348;28;20456;-57
2022/01/25 00:55:27;;;;;;;91.82;62.25;;;;;;;;;;5031767;28;20029;-57
2022/01/25 00:57:52;;;;;;;89.82;60.03;;;;;;;;;;5038550;28;20098;-56
2022/01/25 01:00:17;;;;;;;95.27;65.13;;;;;;;;;;5051592;28;20025;-57
2022/01/25 01:02:43;;;;;;;88.22;61.08;;;;;;;;;;5052703;28;20435;-57
2022/01/25 01:05:08;;;;;;;96.37;68.57;;;;;;;;;;5051147;28;20044;-57
2022/01/25 01:07:33;;;;;;;92.32;65.25;;;;;;;;;;5049557;28;20013;-57
2022/01/25 01:10:00;;;;;;;84.47;60.95;;;;;;;;;;5031296;28;20119;-57
2022/01/25 01:13:30;;;;;;;93.68;61.45;;;;;;;;;;5032774;28;20086;-57
2022/01/25 01:15:26;;;;;;;94.32;59.03;;;;;;;;;;5027350;28;20423;-57
2022/01/25 01:31:16;;;;;;;95.70;66.15;;;;;;;;;;5032800;28;20075;-57
2022/01/25 01:34:07;;;;;;;86.85;63.85;;;;;;;;;;5031221;28;20022;-57
2022/01/25 01:44:28;;;;;;;85.32;56.70;;;;;;;;;;5008297;28;20058;-57
2022/01/25 01:47:36;;;;;;;89.15;62.53;;;;;;;;;;5043257;28;20029;-57
2022/01/25 01:49:45;;;;;;;92.47;61.55;;;;;;;;;;5027987;28;20891;-57
2022/01/25 01:52:11;;;;;;;86.30;65.03;;;;;;;;;;5032398;28;20021;-57
2022/01/25 01:54:36;;;;;;;86.40;58.60;;;;;;;;;;5030728;28;20040;-57
2022/01/25 01:57:02;;;;;;;89.40;56.72;;;;;;;;;;5032807;28;20029;-58
2022/01/25 01:59:27;;;;;;;83.00;59.92;;;;;;;;;;5050145;28;20068;-57
2022/01/25 02:01:53;;;;;;;79.82;55.75;;;;;;;;;;5040243;28;20464;-57
2022/01/25 02:04:18;;;;;;;81.70;55.20;;;;;;;;;;5030260;28;20040;-57
2022/01/25 02:06:43;;;;;;;79.82;52.58;;;;;;;;;;5031566;28;20436;-57
2022/01/25 02:09:09;;;;;;;84.47;57.97;;;;;;;;;;5048267;28;20037;-57
2022/01/25 02:11:34;;;;;;;83.50;56.08;;;;;;;;;;5051661;28;20056;-57
2022/01/25 02:14:04;;;;;;;78.32;53.03;;;;;;;;;;5049554;28;20087;-58
2022/01/25 02:16:40;;;;;;;84.60;56.38;;;;;;;;;;5051696;28;20040;-57
2022/01/25 02:24:37;;;;;;;85.65;57.53;;;;;;;;;;5034148;28;20110;-58
2022/01/25 02:27:03;;;;;;;88.75;57.55;;;;;;;;;;5045111;28;20471;-58
2022/01/25 02:29:28;;;;;;;80.90;56.72;;;;;;;;;;5029974;28;20095;-57
2022/01/25 02:31:53;;;;;;;77.15;55.05;;;;;;;;;;5031215;28;20029;-57
2022/01/25 02:34:19;;;;;;;86.78;61.40;;;;;;;;;;5029725;28;20045;-57
2022/01/25 02:36:44;;;;;;;78.20;53.63;;;;;;;;;;5033818;28;20025;-57
2022/01/25 02:39:09;;;;;;;79.53;51.50;;;;;;;;;;5048654;28;20037;-57
2022/01/25 02:41:35;;;;;;;71.93;48.00;;;;;;;;;;5050878;28;20120;-56
2022/01/25 02:44:00;;;;;;;79.63;52.58;;;;;;;;;;5049534;28;20097;-57
2022/01/25 02:48:58;;;;;;;82.35;60.53;;;;;;;;;;5029100;28;20908;-57
2022/01/25 02:51:25;;;;;;;75.65;51.92;;;;;;;;;;5031009;28;20021;-57
2022/01/25 02:53:50;;;;;;;85.50;58.38;;;;;;;;;;5029663;28;20029;-57
2022/01/25 02:56:16;;;;;;;86.83;63.63;;;;;;;;;;5047063;28;20365;-58
2022/01/25 02:58:41;;;;;;;81.15;56.22;;;;;;;;;;5031471;28;20139;-57
2022/01/25 03:01:06;;;;;;;86.83;60.13;;;;;;;;;;5030949;28;20025;-57
2022/01/25 03:03:32;;;;;;;85.50;56.80;;;;;;;;;;5029092;28;20461;-58
2022/01/25 03:05:57;;;;;;;81.47;58.03;;;;;;;;;;5030472;28;20014;-57
2022/01/25 03:08:22;;;;;;;79.40;56.85;;;;;;;;;;5046068;28;20045;-57
2022/01/25 03:10:48;;;;;;;80.93;57.13;;;;;;;;;;5040371;28;20041;-58
2022/01/25 03:13:21;;;;;;;88.18;61.45;;;;;;;;;;5030612;28;20432;-58
2022/01/25 03:18:36;;;;;;;80.90;56.42;;;;;;;;;;5044096;28;20049;-58
2022/01/25 03:21:04;;;;;;;90.32;63.13;;;;;;;;;;5049018;28;20049;-58
2022/01/25 03:23:31;;;;;;;81.93;58.10;;;;;;;;;;5049324;28;20092;-58
2022/01/25 03:25:56;;;;;;;87.15;59.28;;;;;;;;;;5050087;28;20012;-58
2022/01/25 03:28:22;;;;;;;94.73;62.33;;;;;;;;;;5035444;28;20040;-58
2022/01/25 03:30:47;;;;;;;81.40;57.95;;;;;;;;;;5028844;28;20112;-58
2022/01/25 03:33:13;;;;;;;84.60;59.33;;;;;;;;;;5030131;28;20075;-58
2022/01/25 03:35:39;;;;;;;86.15;56.90;;;;;;;;;;5041335;28;20106;-58
2022/01/25 03:38:04;;;;;;;84.43;58.90;;;;;;;;;;5050198;28;20060;-57
2022/01/25 03:40:30;;;;;;;87.25;61.47;;;;;;;;;;5048714;28;20492;-58
2022/01/25 03:42:55;;;;;;;86.40;59.67;;;;;;;;;;5049916;28;20468;-57
2022/01/25 03:45:27;;;;;;;87.25;60.67;;;;;;;;;;5038660;28;20040;-57
2022/01/25 03:49:49;;;;;;;83.55;55.13;;;;;;;;;;5030063;28;20056;-58
2022/01/25 03:50:47;;;;;;;92.53;62.05;;;;;;;;;;5030103;28;20380;-58
2022/01/25 03:53:13;;;;;;;85.22;58.95;;;;;;;;;;5034701;28;20013;-57
2022/01/25 03:55:39;;;;;;;94.65;62.70;;;;;;;;;;5045704;28;20033;-57
2022/01/25 03:58:04;;;;;;;92.63;64.10;;;;;;;;;;5054234;28;20025;-58
2022/01/25 04:00:32;;;;;;;86.90;62.22;;;;;;;;;;5051069;28;20056;-58
2022/01/25 04:03:04;;;;;;;80.60;56.20;;;;;;;;;;5053689;28;20195;-58
2022/01/25 04:05:39;;;;;;;86.93;58.28;;;;;;;;;;5040116;28;20036;-58
2022/01/25 04:08:04;;;;;;;92.50;61.05;;;;;;;;;;5039394;28;20048;-58
2022/01/25 04:10:30;;;;;;;85.65;57.95;;;;;;;;;;5052246;28;20118;-58
2022/01/25 04:12:55;;;;;;;85.97;57.93;;;;;;;;;;5053903;28;20035;-58
2022/01/25 04:15:20;;;;;;;84.80;60.95;;;;;;;;;;5041482;28;20496;-57
2022/01/25 04:17:50;;;;;;;85.15;58.03;;;;;;;;;;5033045;28;20575;-58
2022/01/25 04:20:26;;;;;;;85.38;56.80;;;;;;;;;;5032154;28;20032;-58
2022/01/25 04:25:35;;;;;;;90.13;59.08;;;;;;;;;;5044318;28;20040;-58
2022/01/25 04:28:01;;;;;;;84.68;58.13;;;;;;;;;;5034454;28;20025;-58
2022/01/25 04:30:26;;;;;;;85.20;62.35;;;;;;;;;;5031963;28;20041;-58
2022/01/25 04:32:59;;;;;;;89.93;61.20;;;;;;;;;;5033176;28;20097;-58
2022/01/25 04:49:08;;;;;;;85.68;58.53;;;;;;;;;;5031578;28;20033;-58
2022/01/25 04:51:45;;;;;;;89.35;59.17;;;;;;;;;;5033541;28;20072;-57
2022/01/25 04:54:23;;;;;;;86.43;54.63;;;;;;;;;;5034312;28;20033;-57
2022/01/25 04:57:06;;;;;;;84.40;60.77;;;;;;;;;;5043483;28;20045;-58
2022/01/25 05:04:54;;;;;;;93.53;61.10;;;;;;;;;;5041190;28;20496;-58
2022/01/25 05:09:51;;;;;;;92.43;61.78;;;;;;;;;;5039237;28;20029;-57
2022/01/25 05:12:17;;;;;;;80.10;56.00;;;;;;;;;;5046541;28;20040;-58
2022/01/25 05:15:01;;;;;;;93.68;57.47;;;;;;;;;;5041994;28;20041;-57
2022/01/25 05:17:47;;;;;;;90.47;59.45;;;;;;;;;;5042562;28;20033;-57
2022/01/25 05:22:56;;;;;;;91.95;57.60;;;;;;;;;;5041559;28;20044;-57
2022/01/25 05:25:21;;;;;;;90.05;65.65;;;;;;;;;;5038767;28;20029;-57
2022/01/25 05:27:46;;;;;;;89.82;61.50;;;;;;;;;;5040644;28;20017;-57
2022/01/25 05:30:11;;;;;;;92.80;61.47;;;;;;;;;;5041149;28;20032;-57
2022/01/25 05:32:37;;;;;;;89.88;61.30;;;;;;;;;;5037127;28;20029;-57
2022/01/25 05:35:03;;;;;;;90.72;61.25;;;;;;;;;;5042414;28;20033;-57
2022/01/25 05:37:28;;;;;;;88.35;60.53;;;;;;;;;;5049823;28;20029;-57
2022/01/25 05:39:53;;;;;;;96.05;60.90;;;;;;;;;;5040995;28;20090;-57
2022/01/25 05:47:18;;;;;;;61.40;44.67;;;;;;;;;;5052106;28;20028;-57
2022/01/25 05:49:45;;;;;;;85.53;55.78;;;;;;;;;;5050511;28;20045;-57
2022/01/25 05:52:10;;;;;;;79.70;53.58;;;;;;;;;;5052175;28;20021;-57
2022/01/25 05:54:36;;;;;;;76.77;53.37;;;;;;;;;;5050001;28;20063;-57
2022/01/25 05:57:01;;;;;;;85.53;57.08;;;;;;;;;;5051571;28;20789;-57
2022/01/25 05:59:26;;;;;;;82.93;53.63;;;;;;;;;;5050654;28;20041;-57
2022/01/25 06:01:51;;;;;;;79.97;54.00;;;;;;;;;;5051284;28;20067;-57
2022/01/25 06:04:17;;;;;;;87.80;54.00;;;;;;;;;;5050313;28;20420;-57
2022/01/25 06:06:42;;;;;;;78.60;53.42;;;;;;;;;;5051913;28;20028;-57
2022/01/25 06:09:07;;;;;;;85.93;58.43;;;;;;;;;;5049817;28;20032;-57
2022/01/25 06:11:33;;;;;;;75.37;53.70;;;;;;;;;;5051714;28;20424;-57
2022/01/25 06:13:59;;;;;;;83.32;53.78;;;;;;;;;;5050164;28;20036;-57
2022/01/25 06:16:28;;;;;;;75.40;52.88;;;;;;;;;;5051144;28;20029;-56
2022/01/25 06:18:53;;;;;;;88.53;57.45;;;;;;;;;;5049671;28;20041;-56
2022/01/25 06:21:18;;;;;;;86.15;56.58;;;;;;;;;;5051679;28;20431;-56
2022/01/25 06:23:43;;;;;;;79.80;53.97;;;;;;;;;;5049411;28;20044;-57
2022/01/25 06:26:08;;;;;;;89.57;58.67;;;;;;;;;;5051533;28;20024;-56
2022/01/25 06:28:33;;;;;;;87.20;59.92;;;;;;;;;;5049795;28;20040;-56
2022/01/25 06:30:59;;;;;;;88.50;58.63;;;;;;;;;;5050706;28;20044;-56
2022/01/25 06:33:24;;;;;;;82.78;53.22;;;;;;;;;;5050141;28;20021;-56
2022/01/25 06:35:49;;;;;;;81.00;53.77;;;;;;;;;;5051113;28;20020;-56
2022/01/25 06:38:14;;;;;;;83.05;54.97;;;;;;;;;;5050971;28;20108;-56
2022/01/25 06:40:40;;;;;;;86.35;57.42;;;;;;;;;;5049674;28;20508;-57
2022/01/25 06:43:05;;;;;;;84.25;59.90;;;;;;;;;;5051326;28;20013;-56
2022/01/25 06:45:31;;;;;;;85.30;55.05;;;;;;;;;;5049280;28;20489;-56
2022/01/25 06:47:56;;;;;;;84.50;56.03;;;;;;;;;;5050762;28;20392;-56
2022/01/25 06:50:24;;;;;;;85.22;55.53;;;;;;;;;;5049623;28;20239;-56
2022/01/25 06:52:50;;;;;;;88.00;56.97;;;;;;;;;;5050654;28;20017;-56
2022/01/25 06:55:16;;;;;;;83.55;54.72;;;;;;;;;;5049213;28;20041;-56
2022/01/25 06:57:42;;;;;;;90.90;57.17;;;;;;;;;;5050967;28;20082;-53
2022/01/25 07:00:09;;;;;;;87.50;57.17;;;;;;;;;;5049099;28;20468;-54
2022/01/25 07:02:34;;;;;;;88.25;56.22;;;;;;;;;;5038198;28;20026;-54
2022/01/25 07:04:59;;;;;;;90.68;61.28;;;;;;;;;;5038589;28;20393;-53
2022/01/25 07:07:24;;;;;;;84.00;54.78;;;;;;;;;;5039137;28;20025;-53
2022/01/25 07:09:50;;;;;;;88.07;57.60;;;;;;;;;;5036836;28;20147;-54
2022/01/25 07:12:15;;;;;;;89.28;58.63;;;;;;;;;;5033281;28;20370;-54
2022/01/25 07:14:40;;;;;;;83.15;54.03;;;;;;;;;;5029103;28;20128;-54
2022/01/25 07:17:05;;;;;;;86.90;58.88;;;;;;;;;;5030509;28;20045;-54
2022/01/25 07:19:30;;;;;;;89.67;59.17;;;;;;;;;;5029236;28;20056;-54
2022/01/25 07:21:55;;;;;;;86.15;56.17;;;;;;;;;;5038659;28;20132;-54
2022/01/25 07:24:21;;;;;;;83.03;54.38;;;;;;;;;;5042757;28;20033;-54
2022/01/25 07:26:47;;;;;;;82.07;58.40;;;;;;;;;;5029389;28;20021;-53
2022/01/25 07:29:12;;;;;;;107.28;62.65;;;;;;;;;;5029268;28;20060;-54
2022/01/25 07:31:37;;;;;;;95.07;59.97;;;;;;;;;;5029924;28;20472;-53
2022/01/25 07:34:03;;;;;;;88.97;60.57;;;;;;;;;;5029121;28;20037;-54
2022/01/25 07:36:28;;;;;;;84.53;56.40;;;;;;;;;;5029596;28;20052;-54
2022/01/25 07:38:53;;;;;;;104.43;62.77;;;;;;;;;;5025985;28;20437;-54
2022/01/25 07:41:18;;;;;;;95.00;60.20;;;;;;;;;;5029213;28;20439;-54
2022/01/25 07:43:43;;;;;;;92.47;60.83;;;;;;;;;;5028798;28;20931;-53
2022/01/25 07:46:09;;;;;;;94.23;63.20;;;;;;;;;;5030192;28;20488;-53
2022/01/25 07:48:34;;;;;;;89.60;58.30;;;;;;;;;;5028879;28;20424;-54
2022/01/25 07:50:59;;;;;;;83.82;57.22;;;;;;;;;;5036245;28;20507;-54
2022/01/25 07:53:24;;;;;;;94.28;59.15;;;;;;;;;;5048203;28;20025;-53
2022/01/25 07:55:50;;;;;;;84.93;57.30;;;;;;;;;;5047487;28;20010;-54
2022/01/25 07:58:15;;;;;;;86.90;55.90;;;;;;;;;;5049841;28;20379;-53
2022/01/25 08:00:40;;;;;;;86.85;58.63;;;;;;;;;;5047870;28;20440;-53
2022/01/25 08:03:06;;;;;;;86.97;55.80;;;;;;;;;;5049879;28;20017;-53
2022/01/25 08:05:31;;;;;;;79.68;52.50;;;;;;;;;;5043662;28;20033;-53
2022/01/25 08:07:58;;;;;;;95.30;61.38;;;;;;;;;;5049172;28;20361;-54
2022/01/25 08:10:23;;;;;;;89.07;57.65;;;;;;;;;;5038929;28;20037;-53
2022/01/25 08:12:48;;;;;;;97.35;55.40;;;;;;;;;;5043994;28;20016;-54
2022/01/25 08:15:15;;;;;;;85.47;54.13;;;;;;;;;;5048049;28;20086;-53
2022/01/25 08:17:40;;;;;;;85.57;57.17;;;;;;;;;;5048254;28;20674;-54
2022/01/25 08:20:06;;;;;;;87.72;57.47;;;;;;;;;;5048402;28;20132;-53
2022/01/25 08:22:33;;;;;;;93.90;56.15;;;;;;;;;;5049577;28;20033;-53
2022/01/25 08:24:58;;;;;;;83.03;53.13;;;;;;;;;;5048053;28;20119;-53
2022/01/25 08:27:24;;;;;;;86.70;57.38;;;;;;;;;;5049813;28;20041;-53
2022/01/25 08:29:50;;;;;;;84.55;49.78;;;;;;;;;;5037842;28;20036;-54
2022/01/25 08:32:15;;;;;;;94.25;58.58;;;;;;;;;;5041787;28;20029;-54
2022/01/25 08:34:40;;;;;;;88.18;55.55;;;;;;;;;;5047447;28;20029;-54
2022/01/25 08:37:05;;;;;;;88.07;55.67;;;;;;;;;;5029958;28;20028;-54
2022/01/25 08:39:31;;;;;;;88.05;60.65;;;;;;;;;;5031942;28;20041;-53
2022/01/25 08:41:56;;;;;;;87.40;57.50;;;;;;;;;;5033077;28;20029;-54
2022/01/25 08:44:21;;;;;;;86.38;57.85;;;;;;;;;;5031802;28;20041;-54
2022/01/25 08:46:46;;;;;;;85.77;52.07;;;;;;;;;;5033089;28;20333;-53
2022/01/25 08:49:11;;;;;;;90.53;54.73;;;;;;;;;;5048924;28;20512;-53
2022/01/25 08:51:36;;;;;;;90.05;56.58;;;;;;;;;;5040768;28;20388;-54
2022/01/25 08:54:02;;;;;;;82.30;53.13;;;;;;;;;;5051302;28;20041;-54
2022/01/25 08:56:27;;;;;;;90.97;59.58;;;;;;;;;;5042831;28;20052;-54
2022/01/25 08:58:52;;;;;;;82.35;54.88;;;;;;;;;;5031154;28;20049;-52
2022/01/25 09:01:17;;;;;;;83.90;53.27;;;;;;;;;;5033005;28;20022;-54
2022/01/25 09:03:43;;;;;;;89.82;56.20;;;;;;;;;;5031536;28;20041;-54
2022/01/25 09:06:08;;;;;;;80.07;55.00;;;;;;;;;;5032819;28;20465;-53
2022/01/25 09:08:33;;;;;;;81.18;53.80;;;;;;;;;;5031040;28;20442;-54
2022/01/25 09:11:01;;;;;;;77.77;50.90;;;;;;;;;;5032967;28;20020;-54
2022/01/25 09:13:27;;;;;;;83.88;56.65;;;;;;;;;;5036491;28;20539;-54
2022/01/25 09:15:52;;;;;;;80.80;52.95;;;;;;;;;;5052657;28;20096;-53
2022/01/25 09:18:17;;;;;;;85.65;58.33;;;;;;;;;;5052526;28;20045;-55
2022/01/25 09:20:42;;;;;;;86.67;58.57;;;;;;;;;;5050874;28;20044;-54
2022/01/25 09:23:08;;;;;;;76.88;54.92;;;;;;;;;;5052231;28;20016;-54
2022/01/25 09:25:34;;;;;;;90.18;53.58;;;;;;;;;;5050943;28;20062;-54
2022/01/25 09:27:59;;;;;;;85.68;56.10;;;;;;;;;;5052041;28;20017;-54
2022/01/25 09:30:25;;;;;;;87.30;55.83;;;;;;;;;;5034695;28;20033;-54
2022/01/25 09:32:50;;;;;;;82.17;53.93;;;;;;;;;;5032472;28;20503;-54
2022/01/25 09:35:15;;;;;;;86.47;57.63;;;;;;;;;;5031662;28;20038;-54
2022/01/25 09:37:41;;;;;;;87.47;55.10;;;;;;;;;;5051044;28;20024;-54
2022/01/25 09:40:06;;;;;;;80.25;53.90;;;;;;;;;;5050723;28;20090;-54
2022/01/25 09:42:31;;;;;;;81.35;55.05;;;;;;;;;;5044863;28;20028;-54
2022/01/25 09:44:57;;;;;;;81.23;53.03;;;;;;;;;;5040972;28;20075;-53
2022/01/25 09:47:22;;;;;;;85.95;56.13;;;;;;;;;;5045855;28;20451;-54
2022/01/25 09:49:47;;;;;;;77.00;52.63;;;;;;;;;;5050121;28;20048;-52
2022/01/25 09:52:12;;;;;;;76.03;50.97;;;;;;;;;;5051880;28;20034;-54
2022/01/25 09:54:38;;;;;;;78.50;49.30;;;;;;;;;;5050341;28;20037;-54
2022/01/25 09:57:04;;;;;;;85.32;52.95;;;;;;;;;;5052026;28;20451;-54
2022/01/25 09:59:29;;;;;;;84.53;57.97;;;;;;;;;;5050441;28;20071;-54
2022/01/25 10:01:55;;;;;;;89.38;56.53;;;;;;;;;;5051698;28;20021;-53
2022/01/25 10:04:36;;;;;;;83.45;55.42;;;;;;;;;;5050615;28;20136;-53
2022/01/25 10:07:04;;;;;;;74.97;51.20;;;;;;;;;;5051374;28;20078;-54
2022/01/25 10:09:30;;;;;;;75.75;49.40;;;;;;;;;;5050282;28;20585;-54
2022/01/25 10:11:56;;;;;;;76.63;50.00;;;;;;;;;;5051440;28;20033;-54
2022/01/25 10:14:23;;;;;;;81.82;53.88;;;;;;;;;;5050025;28;20033;-53
2022/01/25 10:16:52;;;;;;;76.82;51.55;;;;;;;;;;5044550;28;20052;-53
2022/01/25 10:19:22;;;;;;;81.78;52.42;;;;;;;;;;5048812;28;20507;-53
2022/01/25 10:21:50;;;;;;;84.55;57.72;;;;;;;;;;5043720;28;20025;-54
2022/01/25 10:24:16;;;;;;;60.20;35.30;;;;;;;;;;5030290;28;20048;-53
2022/01/25 10:26:41;;;;;;;76.13;51.00;;;;;;;;;;5031405;28;20431;-54
2022/01/25 10:29:08;;;;;;;83.90;47.90;;;;;;;;;;5029780;28;20030;-54
2022/01/25 10:31:35;;;;;;;81.82;49.58;;;;;;;;;;5031260;28;20534;-54
2022/01/25 10:34:01;;;;;;;83.13;47.92;;;;;;;;;;5048272;28;20048;-54
2022/01/25 10:36:26;;;;;;;86.85;54.53;;;;;;;;;;5050956;28;20016;-53
2022/01/25 10:38:53;;;;;;;75.45;47.90;;;;;;;;;;5049814;28;20122;-54
2022/01/25 10:41:24;;;;;;;85.22;52.67;;;;;;;;;;5050753;28;20031;-57
2022/01/25 10:43:50;;;;;;;74.57;51.92;;;;;;;;;;5049083;28;20028;-53
2022/01/25 10:46:16;;;;;;;80.65;52.88;;;;;;;;;;5051170;28;20021;-54
2022/01/25 10:48:49;;;;;;;80.40;49.40;;;;;;;;;;5044280;28;20510;-54
2022/01/25 10:51:16;;;;;;;92.00;54.90;;;;;;;;;;5041506;28;20017;-54
2022/01/25 10:53:42;;;;;;;86.50;53.47;;;;;;;;;;5049054;28;20024;-54
2022/01/25 10:56:08;;;;;;;87.07;50.25;;;;;;;;;;5050724;28;20013;-54
2022/01/25 10:58:41;;;;;;;84.75;54.80;;;;;;;;;;5039513;28;20029;-53
2022/01/25 11:01:06;;;;;;;77.07;50.92;;;;;;;;;;5040940;28;20535;-54
2022/01/25 11:03:36;;;;;;;76.70;47.47;;;;;;;;;;5047851;28;20017;-54
2022/01/25 11:06:09;;;;;;;79.38;51.67;;;;;;;;;;5046444;28;20033;-53
2022/01/25 11:08:36;;;;;;;80.70;49.28;;;;;;;;;;5045899;28;20030;-54
2022/01/25 11:11:03;;;;;;;87.75;56.28;;;;;;;;;;5048280;28;20025;-53
2022/01/25 11:15:53;;;;;;;73.53;48.65;;;;;;;;;;5050350;28;20025;-53
2022/01/25 11:18:18;;;;;;;72.18;51.08;;;;;;;;;;5045180;28;20049;-54
2022/01/25 11:20:45;;;;;;;82.53;52.67;;;;;;;;;;5029143;28;20044;-55
2022/01/25 11:23:11;;;;;;;75.60;48.67;;;;;;;;;;5030490;28;20025;-54
2022/01/25 11:25:37;;;;;;;81.38;53.72;;;;;;;;;;5046742;28;20040;-54
2022/01/25 11:28:03;;;;;;;76.70;46.45;;;;;;;;;;5047150;28;20033;-53
2022/01/25 11:30:28;;;;;;;78.80;46.10;;;;;;;;;;5047829;28;20033;-53
2022/01/25 11:32:54;;;;;;;70.35;45.92;;;;;;;;;;5049633;28;20100;-53
2022/01/25 11:35:20;;;;;;;80.00;49.25;;;;;;;;;;5036209;28;20033;-54
2022/01/25 11:37:47;;;;;;;76.63;49.10;;;;;;;;;;5041706;28;20112;-53
2022/01/25 11:40:37;;;;;;;69.63;44.67;;;;;;;;;;5043072;28;20055;-53
2022/01/25 11:43:10;;;;;;;77.40;47.97;;;;;;;;;;5041413;28;20102;-53
2022/01/25 11:45:48;;;;;;;72.22;48.30;;;;;;;;;;5040756;28;20465;-54
2022/01/25 11:48:13;;;;;;;74.30;46.25;;;;;;;;;;5031195;28;20041;-54
2022/01/25 11:50:40;;;;;;;75.45;47.63;;;;;;;;;;5027946;28;20128;-51
2022/01/25 11:53:07;;;;;;;76.82;48.78;;;;;;;;;;5030397;28;20056;-52
2022/01/25 11:55:36;;;;;;;72.28;44.55;;;;;;;;;;5028581;28;20061;-52
2022/01/25 11:58:04;;;;;;;74.55;44.95;;;;;;;;;;5029586;28;20021;-52
2022/01/25 12:00:38;;;;;;;80.78;48.40;;;;;;;;;;5028385;28;20442;-53
2022/01/25 12:03:18;;;;;;;76.03;48.65;;;;;;;;;;5030181;28;20025;-53
2022/01/25 12:06:04;;;;;;;77.10;51.95;;;;;;;;;;5027818;28;20040;-53
2022/01/25 12:08:39;;;;;;;74.57;49.30;;;;;;;;;;5028538;28;20029;-54
2022/01/25 12:11:22;;;;;;;73.38;47.35;;;;;;;;;;5029954;28;20108;-53
2022/01/25 12:13:48;;;;;;;74.78;46.83;;;;;;;;;;5032147;28;20387;-53
2022/01/25 12:16:24;;;;;;;84.78;54.67;;;;;;;;;;5033760;28;20087;-53
2022/01/25 12:18:54;;;;;;;82.13;51.25;;;;;;;;;;5031387;28;20496;-53
2022/01/25 12:21:37;;;;;;;77.70;50.00;;;;;;;;;;5033626;28;20163;-54
2022/01/25 12:24:26;;;;;;;76.72;47.83;;;;;;;;;;5032061;28;20038;-53
2022/01/25 12:27:07;;;;;;;83.05;49.75;;;;;;;;;;5033176;28;20045;-54
2022/01/25 12:29:34;;;;;;;75.88;49.53;;;;;;;;;;5032164;28;20041;-54
2022/01/25 12:32:18;;;;;;;77.35;49.17;;;;;;;;;;5033195;28;20053;-53
2022/01/25 12:35:02;;;;;;;81.53;51.78;;;;;;;;;;5031364;28;20042;-54
2022/01/25 12:37:43;;;;;;;90.00;49.67;;;;;;;;;;5033571;28;20032;-53
2022/01/25 12:40:28;;;;;;;82.90;52.38;;;;;;;;;;5047046;28;20381;-53
2022/01/25 12:43:07;;;;;;;80.22;51.88;;;;;;;;;;5032531;28;20163;-53
2022/01/25 12:45:38;;;;;;;88.15;51.05;;;;;;;;;;5040597;28;20087;-53
2022/01/25 12:48:05;;;;;;;88.15;58.33;;;;;;;;;;5052466;28;20028;-54
2022/01/25 12:50:30;;;;;;;83.13;51.95;;;;;;;;;;5051293;28;20128;-52
2022/01/25 12:52:57;;;;;;;86.18;53.83;;;;;;;;;;5052886;28;20468;-53
2022/01/25 12:55:24;;;;;;;78.00;48.20;;;;;;;;;;5051396;28;20709;-54
2022/01/25 12:57:50;;;;;;;84.63;52.60;;;;;;;;;;5052208;28;20027;-53
2022/01/25 13:00:16;;;;;;;85.00;52.00;;;;;;;;;;5051033;28;20404;-52
2022/01/25 13:02:41;;;;;;;82.25;51.05;;;;;;;;;;5052718;28;20017;-53
2022/01/25 13:05:17;;;;;;;77.97;50.92;;;;;;;;;;5051037;28;20037;-53
2022/01/25 13:07:42;;;;;;;80.10;52.42;;;;;;;;;;5052442;28;20033;-53
2022/01/25 13:10:10;;;;;;;77.43;44.33;;;;;;;;;;5050811;28;20377;-53
2022/01/25 13:12:47;;;;;;;80.77;46.17;;;;;;;;;;5052891;28;20024;-54
2022/01/25 13:15:38;;;;;;;79.82;48.83;;;;;;;;;;5051071;28;20443;-53
2022/01/25 13:18:10;;;;;;;85.22;52.20;;;;;;;;;;5051999;28;20574;-52
2022/01/25 13:20:37;;;;;;;76.18;48.65;;;;;;;;;;5051342;28;20446;-54
2022/01/25 13:23:02;;;;;;;87.80;49.90;;;;;;;;;;5051497;28;20028;-53
2022/01/25 13:25:32;;;;;;;81.30;49.75;;;;;;;;;;5050727;28;20119;-53
2022/01/25 13:28:01;;;;;;;92.82;55.72;;;;;;;;;;5051969;28;20510;-53
2022/01/25 13:33:04;;;;;;;86.63;55.95;;;;;;;;;;5052336;28;20456;-53
2022/01/25 13:35:34;;;;;;;81.63;47.08;;;;;;;;;;5050691;28;20033;-52
2022/01/25 13:38:04;;;;;;;87.53;51.40;;;;;;;;;;5052043;28;20021;-53
2022/01/25 13:40:45;;;;;;;84.18;52.50;;;;;;;;;;5050363;28;20029;-53
2022/01/25 13:43:32;;;;;;;87.30;48.13;;;;;;;;;;5051999;28;20035;-54
2022/01/25 13:45:57;;;;;;;77.20;47.50;;;;;;;;;;5050104;28;20033;-53
2022/01/25 13:48:24;;;;;;;81.90;50.40;;;;;;;;;;5051749;28;20065;-52
2022/01/25 13:50:54;;;;;;;87.25;52.95;;;;;;;;;;5049836;28;20381;-54
2022/01/25 13:53:19;;;;;;;83.72;53.10;;;;;;;;;;5051998;28;20028;-53
2022/01/25 13:55:48;;;;;;;86.70;52.63;;;;;;;;;;5049977;28;20037;-53
2022/01/25 13:58:27;;;;;;;86.57;50.30;;;;;;;;;;5046808;28;20009;-53
2022/01/25 14:00:53;;;;;;;79.28;49.50;;;;;;;;;;5040518;28;20064;-57
2022/01/25 14:03:23;;;;;;;73.53;46.17;;;;;;;;;;5051348;28;20109;-54
2022/01/25 14:05:48;;;;;;;89.25;52.17;;;;;;;;;;5049822;28;20488;-53
2022/01/25 14:08:13;;;;;;;88.80;52.50;;;;;;;;;;5051483;28;20017;-53
2022/01/25 14:10:43;;;;;;;82.63;49.45;;;;;;;;;;5049398;28;20436;-54
2022/01/25 14:21:41;;;;;;;83.55;52.08;;;;;;;;;;5051558;28;20048;-54
2022/01/25 14:24:06;;;;;;;83.13;51.58;;;;;;;;;;5049694;28;20503;-54
2022/01/25 14:26:32;;;;;;;75.05;47.58;;;;;;;;;;5050749;28;20028;-54
2022/01/25 14:29:13;;;;;;;77.50;49.88;;;;;;;;;;5049194;28;20048;-54
2022/01/25 14:31:41;;;;;;;78.03;49.85;;;;;;;;;;5051074;28;20024;-53
2022/01/25 14:34:08;;;;;;;82.15;50.78;;;;;;;;;;5046587;28;20032;-54
2022/01/25 14:36:34;;;;;;;75.35;48.60;;;;;;;;;;5044422;28;20329;-54
2022/01/25 14:38:59;;;;;;;79.93;46.40;;;;;;;;;;5040770;28;20048;-54
2022/01/25 14:41:28;;;;;;;71.45;46.47;;;;;;;;;;5040173;28;20451;-54
2022/01/25 14:43:58;;;;;;;77.07;48.20;;;;;;;;;;5037024;28;20412;-54
2022/01/25 14:46:24;;;;;;;78.05;48.58;;;;;;;;;;5038839;28;20032;-54
2022/01/25 14:49:09;;;;;;;72.40;46.55;;;;;;;;;;5038702;28;20028;-54
2022/01/25 14:51:38;;;;;;;82.85;53.08;;;;;;;;;;5039471;28;20052;-54
2022/01/25 14:54:04;;;;;;;83.80;51.58;;;;;;;;;;5036663;28;20091;-53
2022/01/25 14:56:31;;;;;;;85.05;51.22;;;;;;;;;;5038405;28;20407;-53
2022/01/25 15:01:21;;;;;;;80.82;46.53;;;;;;;;;;5039712;28;20498;-54
2022/01/25 15:03:47;;;;;;;78.25;46.25;;;;;;;;;;5036508;28;20037;-53
2022/01/25 15:06:14;;;;;;;78.35;49.33;;;;;;;;;;5040272;28;20025;-54
2022/01/25 15:08:47;;;;;;;83.18;48.20;;;;;;;;;;5037717;28;20041;-53
2022/01/25 15:11:12;;;;;;;82.82;49.13;;;;;;;;;;5038202;28;20032;-54
2022/01/25 15:13:39;;;;;;;79.47;46.00;;;;;;;;;;5036564;28;20021;-53
2022/01/25 15:16:04;;;;;;;78.72;47.97;;;;;;;;;;5039116;28;20086;-53
2022/01/25 15:18:35;;;;;;;76.03;49.70;;;;;;;;;;5037951;28;20091;-54
2022/01/25 15:21:03;;;;;;;84.07;49.97;;;;;;;;;;5038230;28;20491;-54
2022/01/25 15:23:29;;;;;;;88.80;49.15;;;;;;;;;;5037168;28;20049;-54
2022/01/25 15:25:58;;;;;;;84.53;50.55;;;;;;;;;;5039672;28;20013;-53
2022/01/25 15:28:28;;;;;;;89.38;49.13;;;;;;;;;;5039001;28;20105;-54
2022/01/25 15:30:53;;;;;;;87.80;51.53;;;;;;;;;;5031147;28;20052;-53
2022/01/25 15:33:18;;;;;;;82.47;51.38;;;;;;;;;;5030178;28;20026;-53
2022/01/25 15:35:43;;;;;;;80.15;48.42;;;;;;;;;;5028181;28;20038;-52
2022/01/25 15:38:09;;;;;;;80.03;50.17;;;;;;;;;;5030268;28;20017;-54
2022/01/25 15:40:34;;;;;;;78.05;44.25;;;;;;;;;;5028234;28;20029;-55
2022/01/25 15:42:59;;;;;;;87.15;50.10;;;;;;;;;;5029967;28;20075;-54
2022/01/25 15:45:28;;;;;;;81.18;49.17;;;;;;;;;;5028700;28;20116;-54
2022/01/25 15:47:54;;;;;;;86.25;51.78;;;;;;;;;;5033139;28;20440;-54
2022/01/25 15:50:21;;;;;;;87.63;48.95;;;;;;;;;;5048020;28;20033;-54
2022/01/25 15:52:46;;;;;;;81.60;49.10;;;;;;;;;;5039305;28;20018;-54
2022/01/25 15:55:12;;;;;;;80.18;47.47;;;;;;;;;;5038605;28;20604;-54
2022/01/25 15:57:37;;;;;;;72.47;43.63;;;;;;;;;;5043310;28;20029;-54
2022/01/25 16:00:03;;;;;;;80.03;51.03;;;;;;;;;;5034731;28;20060;-54
2022/01/25 16:02:28;;;;;;;83.20;50.55;;;;;;;;;;5049067;28;20036;-54
2022/01/25 16:04:53;;;;;;;88.43;47.33;;;;;;;;;;5036972;28;20033;-54
2022/01/25 16:07:19;;;;;;;83.07;46.08;;;;;;;;;;5053776;28;20032;-54
2022/01/25 16:09:44;;;;;;;81.22;46.08;;;;;;;;;;5050134;28;20500;-54